Goldsberry, Missouri
Current Conditions -  °F | °C
As of 4:55 AM on Friday 31 Oct 2014 (Local Time) from KIRK Reporting Station
Broken Clouds Broken Clouds  
Wind Chill: 32°   Ceiling: 3500
Heat Index: 41°   Visibility: 10mi
Dew Point: 30°   Wind: 20mph
Humidity: 65%   Direction: 350°N
Pressure: 30.28"   Gusts: 29mph
Location:  39.9344°N, 92.7744°W
Report Text: KIRK 310955Z AUTO 35017G25KT 10SM BKN035 05/M01 A3028 RMK AO2 PK WND 33031/0910 RAB0857E18 SLP258 P0000 T00501011
Loading
Personal Weather Stations






























Interactive Weather Map
Tropical Storm Tracking
New forecast layout! Learn more

10-Day Weather Forecast

Advertisements
Track Severe Weather on mobile